sensor_id;sensor_type;location;lat;lon;timestamp;pressure;altitude;pressure_sealevel;temperature;humidity
73860;BME280;62197;51.632;13.700;2023-04-23T00:00:50;99456.34;;;13.52;63.37
73860;BME280;62197;51.632;13.700;2023-04-23T00:03:17;99455.78;;;13.55;63.95
73860;BME280;62197;51.632;13.700;2023-04-23T00:05:44;99454.09;;;13.64;63.42
73860;BME280;62197;51.632;13.700;2023-04-23T00:08:09;99464.09;;;13.60;62.94
73860;BME280;62197;51.632;13.700;2023-04-23T00:10:35;99460.25;;;13.51;63.39
73860;BME280;62197;51.632;13.700;2023-04-23T00:13:01;99457.53;;;13.36;63.41
73860;BME280;62197;51.632;13.700;2023-04-23T00:15:26;99452.91;;;13.21;64.77
73860;BME280;62197;51.632;13.700;2023-04-23T00:17:52;99460.97;;;13.18;65.46
73860;BME280;62197;51.632;13.700;2023-04-23T00:20:17;99462.09;;;13.07;65.89
73860;BME280;62197;51.632;13.700;2023-04-23T00:22:43;99465.13;;;13.00;67.50
73860;BME280;62197;51.632;13.700;2023-04-23T00:25:09;99456.03;;;12.85;69.27
73860;BME280;62197;51.632;13.700;2023-04-23T00:27:35;99452.72;;;12.78;68.73
73860;BME280;62197;51.632;13.700;2023-04-23T00:30:01;99438.09;;;12.67;69.00
73860;BME280;62197;51.632;13.700;2023-04-23T00:32:27;99446.41;;;12.57;70.37
73860;BME280;62197;51.632;13.700;2023-04-23T00:34:52;99442.25;;;12.49;71.43
73860;BME280;62197;51.632;13.700;2023-04-23T00:37:19;99447.81;;;12.39;72.25
73860;BME280;62197;51.632;13.700;2023-04-23T00:39:44;99441.47;;;12.29;71.57
73860;BME280;62197;51.632;13.700;2023-04-23T00:42:10;99440.63;;;12.28;72.04
73860;BME280;62197;51.632;13.700;2023-04-23T00:44:39;99446.69;;;12.25;72.04
73860;BME280;62197;51.632;13.700;2023-04-23T00:47:05;99437.31;;;12.21;71.35
73860;BME280;62197;51.632;13.700;2023-04-23T00:49:32;99449.22;;;12.27;71.19
73860;BME280;62197;51.632;13.700;2023-04-23T00:51:58;99444.78;;;12.26;71.48
73860;BME280;62197;51.632;13.700;2023-04-23T00:54:24;99440.34;;;12.15;72.84
73860;BME280;62197;51.632;13.700;2023-04-23T00:56:50;99442.28;;;12.09;73.75
73860;BME280;62197;51.632;13.700;2023-04-23T00:59:16;99437.28;;;11.91;74.66
73860;BME280;62197;51.632;13.700;2023-04-23T01:01:42;99443.09;;;11.79;75.23
73860;BME280;62197;51.632;13.700;2023-04-23T01:04:10;99448.91;;;11.78;75.56
73860;BME280;62197;51.632;13.700;2023-04-23T01:06:36;99443.91;;;11.70;75.12
73860;BME280;62197;51.632;13.700;2023-04-23T01:09:02;99438.88;;;11.62;75.46
73860;BME280;62197;51.632;13.700;2023-04-23T01:11:27;99442.19;;;11.59;75.33
73860;BME280;62197;51.632;13.700;2023-04-23T01:13:53;99436.41;;;11.55;75.93
73860;BME280;62197;51.632;13.700;2023-04-23T01:16:19;99437.16;;;11.46;76.25
73860;BME280;62197;51.632;13.700;2023-04-23T01:18:45;99436.34;;;11.40;76.52
73860;BME280;62197;51.632;13.700;2023-04-23T01:21:10;99444.34;;;11.37;78.07
73860;BME280;62197;51.632;13.700;2023-04-23T01:23:36;99432.16;;;11.33;78.60
73860;BME280;62197;51.632;13.700;2023-04-23T01:26:02;99438.56;;;11.43;77.89
73860;BME280;62197;51.632;13.700;2023-04-23T01:28:28;99438.59;;;11.53;77.47
73860;BME280;62197;51.632;13.700;2023-04-23T01:30:54;99433.88;;;11.54;75.73
73860;BME280;62197;51.632;13.700;2023-04-23T01:33:20;99417.88;;;11.51;76.55
73860;BME280;62197;51.632;13.700;2023-04-23T01:35:45;99439.69;;;11.47;77.35
73860;BME280;62197;51.632;13.700;2023-04-23T01:38:13;99428.88;;;11.41;79.87
73860;BME280;62197;51.632;13.700;2023-04-23T01:40:38;99431.66;;;11.46;77.74
73860;BME280;62197;51.632;13.700;2023-04-23T01:43:05;99431.66;;;11.41;78.93
73860;BME280;62197;51.632;13.700;2023-04-23T01:45:30;99423.03;;;11.27;78.00
73860;BME280;62197;51.632;13.700;2023-04-23T01:47:56;99423.88;;;11.28;78.60
73860;BME280;62197;51.632;13.700;2023-04-23T01:50:21;99423.88;;;11.33;78.33
73860;BME280;62197;51.632;13.700;2023-04-23T01:52:49;99424.97;;;11.22;79.84
73860;BME280;62197;51.632;13.700;2023-04-23T01:55:15;99423.28;;;11.21;79.70
73860;BME280;62197;51.632;13.700;2023-04-23T01:57:43;99425.25;;;11.25;80.12
73860;BME280;62197;51.632;13.700;2023-04-23T02:00:10;99429.13;;;11.24;81.15
73860;BME280;62197;51.632;13.700;2023-04-23T02:02:36;99422.78;;;11.34;80.37
73860;BME280;62197;51.632;13.700;2023-04-23T02:05:02;99419.53;;;11.57;78.67
73860;BME280;62197;51.632;13.700;2023-04-23T02:07:31;99415.66;;;11.53;77.35
73860;BME280;62197;51.632;13.700;2023-04-23T02:09:57;99403.47;;;11.54;76.55
73860;BME280;62197;51.632;13.700;2023-04-23T02:12:23;99430.09;;;11.75;76.80
73860;BME280;62197;51.632;13.700;2023-04-23T02:14:48;99433.72;;;11.81;76.27
73860;BME280;62197;51.632;13.700;2023-04-23T02:17:13;99406.31;;;11.74;76.04
73860;BME280;62197;51.632;13.700;2023-04-23T02:19:39;99421.25;;;11.83;76.42
73860;BME280;62197;51.632;13.700;2023-04-23T02:22:05;99416.00;;;11.82;77.00
73860;BME280;62197;51.632;13.700;2023-04-23T02:24:31;99427.63;;;11.78;76.95
73860;BME280;62197;51.632;13.700;2023-04-23T02:26:57;99421.50;;;11.71;77.99
73860;BME280;62197;51.632;13.700;2023-04-23T02:29:23;99417.31;;;11.64;77.42
73860;BME280;62197;51.632;13.700;2023-04-23T02:31:48;99410.47;;;11.71;77.04
73860;BME280;62197;51.632;13.700;2023-04-23T02:34:13;99415.72;;;11.68;77.71
73860;BME280;62197;51.632;13.700;2023-04-23T02:36:39;99422.34;;;11.67;77.70
73860;BME280;62197;51.632;13.700;2023-04-23T02:39:04;99414.00;;;11.62;77.19
73860;BME280;62197;51.632;13.700;2023-04-23T02:41:30;99402.69;;;11.58;78.07
73860;BME280;62197;51.632;13.700;2023-04-23T02:43:55;99409.84;;;11.59;78.25
73860;BME280;62197;51.632;13.700;2023-04-23T02:46:21;99405.44;;;11.53;78.33
73860;BME280;62197;51.632;13.700;2023-04-23T02:48:46;99401.28;;;11.51;79.35
73860;BME280;62197;51.632;13.700;2023-04-23T02:51:12;99408.22;;;11.53;78.50
73860;BME280;62197;51.632;13.700;2023-04-23T02:53:37;99402.66;;;11.48;77.95
73860;BME280;62197;51.632;13.700;2023-04-23T02:56:03;99401.25;;;11.46;78.86
73860;BME280;62197;51.632;13.700;2023-04-23T02:58:29;99399.34;;;11.41;79.71
73860;BME280;62197;51.632;13.700;2023-04-23T03:00:54;99399.31;;;11.36;80.39
73860;BME280;62197;51.632;13.700;2023-04-23T03:03:20;99396.25;;;11.28;81.74
73860;BME280;62197;51.632;13.700;2023-04-23T03:05:45;99388.50;;;11.15;82.79
73860;BME280;62197;51.632;13.700;2023-04-23T03:08:11;99392.63;;;11.17;82.62
73860;BME280;62197;51.632;13.700;2023-04-23T03:10:36;99392.38;;;11.19;82.30
73860;BME280;62197;51.632;13.700;2023-04-23T03:13:01;99395.09;;;11.14;81.52
73860;BME280;62197;51.632;13.700;2023-04-23T03:15:27;99390.13;;;11.11;82.47
73860;BME280;62197;51.632;13.700;2023-04-23T03:17:52;99383.50;;;11.07;82.77
73860;BME280;62197;51.632;13.700;2023-04-23T03:20:18;99380.69;;;10.92;84.65
73860;BME280;62197;51.632;13.700;2023-04-23T03:22:43;99378.44;;;10.83;85.89
73860;BME280;62197;51.632;13.700;2023-04-23T03:25:09;99381.78;;;10.96;85.32
73860;BME280;62197;51.632;13.700;2023-04-23T03:27:34;99372.97;;;10.94;85.02
73860;BME280;62197;51.632;13.700;2023-04-23T03:30:00;99387.28;;;10.96;85.00
73860;BME280;62197;51.632;13.700;2023-04-23T03:32:25;99381.75;;;10.90;85.38
73860;BME280;62197;51.632;13.700;2023-04-23T03:34:50;99388.91;;;10.86;85.68
73860;BME280;62197;51.632;13.700;2023-04-23T03:37:16;99381.22;;;10.88;86.37
73860;BME280;62197;51.632;13.700;2023-04-23T03:39:41;99371.56;;;10.91;85.74
73860;BME280;62197;51.632;13.700;2023-04-23T03:42:06;99382.91;;;11.00;83.75
73860;BME280;62197;51.632;13.700;2023-04-23T03:44:32;99388.47;;;11.05;84.47
73860;BME280;62197;51.632;13.700;2023-04-23T03:46:57;99379.56;;;10.98;83.39
73860;BME280;62197;51.632;13.700;2023-04-23T03:49:24;99396.75;;;11.05;85.46
73860;BME280;62197;51.632;13.700;2023-04-23T03:51:50;99393.94;;;11.00;85.25
73860;BME280;62197;51.632;13.700;2023-04-23T03:54:15;99392.06;;;11.05;85.72
73860;BME280;62197;51.632;13.700;2023-04-23T03:56:40;99401.16;;;11.06;85.87
73860;BME280;62197;51.632;13.700;2023-04-23T03:59:06;99392.63;;;11.12;84.79
73860;BME280;62197;51.632;13.700;2023-04-23T04:01:31;99388.47;;;11.10;85.38
73860;BME280;62197;51.632;13.700;2023-04-23T04:03:57;99396.22;;;11.13;84.79
73860;BME280;62197;51.632;13.700;2023-04-23T04:06:22;99391.50;;;11.08;85.43
73860;BME280;62197;51.632;13.700;2023-04-23T04:08:47;99388.47;;;11.05;85.36
73860;BME280;62197;51.632;13.700;2023-04-23T04:11:13;99387.34;;;11.06;85.65
73860;BME280;62197;51.632;13.700;2023-04-23T04:13:38;99390.66;;;11.08;85.94
73860;BME280;62197;51.632;13.700;2023-04-23T04:16:04;99394.81;;;11.15;85.16
73860;BME280;62197;51.632;13.700;2023-04-23T04:18:29;99391.28;;;11.30;84.84
73860;BME280;62197;51.632;13.700;2023-04-23T04:20:54;99386.59;;;11.35;85.08
73860;BME280;62197;51.632;13.700;2023-04-23T04:23:20;99382.47;;;11.43;84.81
73860;BME280;62197;51.632;13.700;2023-04-23T04:25:45;99389.41;;;11.50;85.20
73860;BME280;62197;51.632;13.700;2023-04-23T04:28:11;99380.00;;;11.56;83.97
73860;BME280;62197;51.632;13.700;2023-04-23T04:30:37;99379.22;;;11.66;82.78
73860;BME280;62197;51.632;13.700;2023-04-23T04:33:03;99387.53;;;11.76;82.88
73860;BME280;62197;51.632;13.700;2023-04-23T04:35:28;99385.88;;;11.85;82.11
73860;BME280;62197;51.632;13.700;2023-04-23T04:37:54;99383.66;;;12.02;81.24
73860;BME280;62197;51.632;13.700;2023-04-23T04:40:20;99383.09;;;12.10;81.05
73860;BME280;62197;51.632;13.700;2023-04-23T04:42:45;99374.78;;;12.25;79.96
73860;BME280;62197;51.632;13.700;2023-04-23T04:45:11;99385.84;;;12.35;80.20
73860;BME280;62197;51.632;13.700;2023-04-23T04:47:36;99380.84;;;12.42;78.96
73860;BME280;62197;51.632;13.700;2023-04-23T04:50:03;99384.44;;;12.48;78.89
73860;BME280;62197;51.632;13.700;2023-04-23T04:52:28;99390.25;;;12.51;79.44
73860;BME280;62197;51.632;13.700;2023-04-23T04:54:53;99377.53;;;12.45;79.30
73860;BME280;62197;51.632;13.700;2023-04-23T04:57:19;99391.34;;;12.55;79.29
73860;BME280;62197;51.632;13.700;2023-04-23T04:59:47;99390.22;;;12.61;79.37
73860;BME280;62197;51.632;13.700;2023-04-23T05:02:12;99393.00;;;12.61;79.31
73860;BME280;62197;51.632;13.700;2023-04-23T05:04:37;99390.47;;;12.65;79.32
73860;BME280;62197;51.632;13.700;2023-04-23T05:07:03;99402.91;;;12.73;78.46
73860;BME280;62197;51.632;13.700;2023-04-23T05:09:28;99404.56;;;12.79;78.37
73860;BME280;62197;51.632;13.700;2023-04-23T05:11:53;99396.25;;;12.79;78.32
73860;BME280;62197;51.632;13.700;2023-04-23T05:14:19;99392.06;;;12.86;78.47
73860;BME280;62197;51.632;13.700;2023-04-23T05:16:45;99382.66;;;12.87;78.44
73860;BME280;62197;51.632;13.700;2023-04-23T05:19:10;99381.78;;;12.97;77.51
73860;BME280;62197;51.632;13.700;2023-04-23T05:21:35;99389.53;;;13.05;76.80
73860;BME280;62197;51.632;13.700;2023-04-23T05:24:01;99385.06;;;13.14;76.20
73860;BME280;62197;51.632;13.700;2023-04-23T05:26:26;99376.19;;;13.17;76.27
73860;BME280;62197;51.632;13.700;2023-04-23T05:28:51;99394.38;;;13.33;76.19
73860;BME280;62197;51.632;13.700;2023-04-23T05:31:17;99394.00;;;13.88;79.55
73860;BME280;62197;51.632;13.700;2023-04-23T05:33:42;99393.84;;;14.71;75.16
73860;BME280;62197;51.632;13.700;2023-04-23T05:36:09;99390.25;;;14.41;76.53
73860;BME280;62197;51.632;13.700;2023-04-23T05:38:35;99395.59;;;14.33;72.87
73860;BME280;62197;51.632;13.700;2023-04-23T05:41:00;99405.50;;;14.05;74.11
73860;BME280;62197;51.632;13.700;2023-04-23T05:43:25;99402.88;;;13.90;75.48
73860;BME280;62197;51.632;13.700;2023-04-23T05:45:51;99398.41;;;13.94;76.74
73860;BME280;62197;51.632;13.700;2023-04-23T05:48:16;99412.25;;;13.99;75.77
73860;BME280;62197;51.632;13.700;2023-04-23T05:50:42;99411.66;;;14.02;75.35
73860;BME280;62197;51.632;13.700;2023-04-23T05:53:07;99421.97;;;13.97;75.49
73860;BME280;62197;51.632;13.700;2023-04-23T05:55:33;99425.91;;;13.91;76.05
73860;BME280;62197;51.632;13.700;2023-04-23T05:57:58;99425.41;;;13.84;77.42
73860;BME280;62197;51.632;13.700;2023-04-23T06:00:23;99427.28;;;13.88;78.27
73860;BME280;62197;51.632;13.700;2023-04-23T06:02:49;99427.34;;;13.78;79.66
73860;BME280;62197;51.632;13.700;2023-04-23T06:05:14;99429.63;;;13.71;79.77
73860;BME280;62197;51.632;13.700;2023-04-23T06:07:41;99421.84;;;13.73;80.09
73860;BME280;62197;51.632;13.700;2023-04-23T06:10:07;99419.31;;;13.82;80.05
73860;BME280;62197;51.632;13.700;2023-04-23T06:12:32;99416.78;;;13.85;80.87
73860;BME280;62197;51.632;13.700;2023-04-23T06:14:58;99417.78;;;13.99;80.01
73860;BME280;62197;51.632;13.700;2023-04-23T06:17:23;99420.59;;;13.94;79.64
73860;BME280;62197;51.632;13.700;2023-04-23T06:19:48;99411.34;;;14.09;79.57
73860;BME280;62197;51.632;13.700;2023-04-23T06:22:14;99412.06;;;14.19;77.99
73860;BME280;62197;51.632;13.700;2023-04-23T06:24:39;99401.63;;;14.06;78.92
73860;BME280;62197;51.632;13.700;2023-04-23T06:27:04;99413.81;;;14.10;78.07
73860;BME280;62197;51.632;13.700;2023-04-23T06:29:30;99407.03;;;14.26;77.92
73860;BME280;62197;51.632;13.700;2023-04-23T06:31:56;99404.81;;;14.28;77.80
73860;BME280;62197;51.632;13.700;2023-04-23T06:34:22;99408.75;;;14.17;78.67
73860;BME280;62197;51.632;13.700;2023-04-23T06:36:47;99417.66;;;14.14;79.92
73860;BME280;62197;51.632;13.700;2023-04-23T06:39:12;99413.22;;;14.13;78.97
73860;BME280;62197;51.632;13.700;2023-04-23T06:41:38;99414.38;;;14.07;78.57
73860;BME280;62197;51.632;13.700;2023-04-23T06:44:03;99407.69;;;14.13;78.68
73860;BME280;62197;51.632;13.700;2023-04-23T06:46:28;99413.94;;;14.29;77.95
73860;BME280;62197;51.632;13.700;2023-04-23T06:48:54;99415.00;;;14.38;77.91
73860;BME280;62197;51.632;13.700;2023-04-23T06:51:19;99409.31;;;14.48;77.73
73860;BME280;62197;51.632;13.700;2023-04-23T06:53:45;99405.75;;;14.48;77.43
73860;BME280;62197;51.632;13.700;2023-04-23T06:56:11;99409.09;;;14.44;77.38
73860;BME280;62197;51.632;13.700;2023-04-23T06:58:36;99417.38;;;14.50;78.61
73860;BME280;62197;51.632;13.700;2023-04-23T07:01:03;99420.03;;;14.60;77.01
73860;BME280;62197;51.632;13.700;2023-04-23T07:03:29;99425.66;;;14.55;78.42
73860;BME280;62197;51.632;13.700;2023-04-23T07:05:55;99418.88;;;14.37;78.07
73860;BME280;62197;51.632;13.700;2023-04-23T07:08:21;99414.06;;;14.48;76.34
73860;BME280;62197;51.632;13.700;2023-04-23T07:10:46;99421.41;;;14.33;76.76
73860;BME280;62197;51.632;13.700;2023-04-23T07:13:12;99421.13;;;14.35;76.81
73860;BME280;62197;51.632;13.700;2023-04-23T07:15:37;99425.28;;;14.37;77.86
73860;BME280;62197;51.632;13.700;2023-04-23T07:18:03;99436.28;;;14.48;75.21
73860;BME280;62197;51.632;13.700;2023-04-23T07:20:29;99427.41;;;14.45;78.08
73860;BME280;62197;51.632;13.700;2023-04-23T07:22:54;99434.69;;;14.36;76.71
73860;BME280;62197;51.632;13.700;2023-04-23T07:25:20;99437.22;;;14.33;77.38
73860;BME280;62197;51.632;13.700;2023-04-23T07:27:46;99442.53;;;14.29;77.66
73860;BME280;62197;51.632;13.700;2023-04-23T07:30:12;99441.44;;;14.25;77.91
73860;BME280;62197;51.632;13.700;2023-04-23T07:32:37;99444.19;;;14.30;79.08
73860;BME280;62197;51.632;13.700;2023-04-23T07:35:03;99445.81;;;14.36;78.93
73860;BME280;62197;51.632;13.700;2023-04-23T07:37:29;99454.66;;;14.38;79.03
73860;BME280;62197;51.632;13.700;2023-04-23T07:39:54;99442.03;;;14.22;79.64
73860;BME280;62197;51.632;13.700;2023-04-23T07:42:19;99452.59;;;14.20;80.74
73860;BME280;62197;51.632;13.700;2023-04-23T07:44:45;99450.91;;;14.19;81.47
73860;BME280;62197;51.632;13.700;2023-04-23T07:47:10;99463.69;;;14.20;82.79
73860;BME280;62197;51.632;13.700;2023-04-23T07:49:35;99463.22;;;14.08;83.88
73860;BME280;62197;51.632;13.700;2023-04-23T07:52:01;99463.50;;;14.07;84.68
73860;BME280;62197;51.632;13.700;2023-04-23T07:54:26;99463.47;;;14.12;85.57
73860;BME280;62197;51.632;13.700;2023-04-23T07:56:51;99457.59;;;14.18;85.75
73860;BME280;62197;51.632;13.700;2023-04-23T07:59:17;99465.28;;;14.31;85.29
73860;BME280;62197;51.632;13.700;2023-04-23T08:01:42;99461.59;;;14.41;86.51
73860;BME280;62197;51.632;13.700;2023-04-23T08:04:07;99455.50;;;14.39;85.27
73860;BME280;62197;51.632;13.700;2023-04-23T08:06:33;99463.94;;;14.58;86.10
73860;BME280;62197;51.632;13.700;2023-04-23T08:08:59;99464.97;;;14.67;86.01
73860;BME280;62197;51.632;13.700;2023-04-23T08:11:25;99469.19;;;14.88;85.54
73860;BME280;62197;51.632;13.700;2023-04-23T08:13:53;99464.19;;;15.13;83.53
73860;BME280;62197;51.632;13.700;2023-04-23T08:16:18;99462.22;;;15.37;83.45
73860;BME280;62197;51.632;13.700;2023-04-23T08:18:44;99472.75;;;15.64;81.74
73860;BME280;62197;51.632;13.700;2023-04-23T08:21:09;99452.03;;;15.75;81.32
73860;BME280;62197;51.632;13.700;2023-04-23T08:23:37;99469.69;;;16.21;80.20
73860;BME280;62197;51.632;13.700;2023-04-23T08:26:02;99463.88;;;16.37;79.02
73860;BME280;62197;51.632;13.700;2023-04-23T08:28:27;99475.16;;;16.26;79.60
73860;BME280;62197;51.632;13.700;2023-04-23T08:30:53;99466.28;;;16.43;78.31
73860;BME280;62197;51.632;13.700;2023-04-23T08:33:18;99458.81;;;16.39;79.24
73860;BME280;62197;51.632;13.700;2023-04-23T08:35:44;99463.47;;;16.62;78.19
73860;BME280;62197;51.632;13.700;2023-04-23T08:38:09;99455.53;;;16.69;76.96
73860;BME280;62197;51.632;13.700;2023-04-23T08:40:36;99460.09;;;16.78;76.54
73860;BME280;62197;51.632;13.700;2023-04-23T08:43:09;99468.22;;;17.07;75.38
73860;BME280;62197;51.632;13.700;2023-04-23T08:45:39;99470.38;;;17.24;74.83
73860;BME280;62197;51.632;13.700;2023-04-23T08:48:05;99477.09;;;17.23;74.85
73860;BME280;62197;51.632;13.700;2023-04-23T08:50:32;99478.72;;;17.10;76.75
73860;BME280;62197;51.632;13.700;2023-04-23T08:52:57;99477.72;;;17.33;74.80
73860;BME280;62197;51.632;13.700;2023-04-23T08:55:23;99467.59;;;17.37;75.20
73860;BME280;62197;51.632;13.700;2023-04-23T08:57:49;99479.56;;;17.10;76.17
73860;BME280;62197;51.632;13.700;2023-04-23T09:00:17;99484.22;;;17.69;75.32
73860;BME280;62197;51.632;13.700;2023-04-23T09:02:45;99475.34;;;17.67;72.05
73860;BME280;62197;51.632;13.700;2023-04-23T09:05:12;99481.63;;;17.86;72.73
73860;BME280;62197;51.632;13.700;2023-04-23T09:07:37;99469.19;;;17.92;71.95
73860;BME280;62197;51.632;13.700;2023-04-23T09:10:04;99479.47;;;17.56;72.33
73860;BME280;62197;51.632;13.700;2023-04-23T09:12:31;99475.56;;;17.30;73.35
73860;BME280;62197;51.632;13.700;2023-04-23T09:14:57;99473.38;;;17.41;72.85
73860;BME280;62197;51.632;13.700;2023-04-23T09:17:27;99476.38;;;17.71;71.64
73860;BME280;62197;51.632;13.700;2023-04-23T09:19:53;99477.66;;;18.37;68.97
73860;BME280;62197;51.632;13.700;2023-04-23T09:22:41;99477.09;;;18.13;69.87
73860;BME280;62197;51.632;13.700;2023-04-23T09:25:07;99466.94;;;17.81;72.02
73860;BME280;62197;51.632;13.700;2023-04-23T09:27:33;99475.63;;;17.79;72.34
73860;BME280;62197;51.632;13.700;2023-04-23T09:30:01;99466.16;;;17.26;74.22
73860;BME280;62197;51.632;13.700;2023-04-23T09:32:40;99481.41;;;17.29;74.80
73860;BME280;62197;51.632;13.700;2023-04-23T09:35:11;99471.28;;;17.19;76.41
73860;BME280;62197;51.632;13.700;2023-04-23T09:37:37;99467.84;;;16.81;77.51
73860;BME280;62197;51.632;13.700;2023-04-23T09:40:06;99480.69;;;16.64;78.83
73860;BME280;62197;51.632;13.700;2023-04-23T09:42:33;99481.50;;;16.51;80.51
73860;BME280;62197;51.632;13.700;2023-04-23T09:45:04;99471.69;;;16.35;81.07
73860;BME280;62197;51.632;13.700;2023-04-23T09:47:37;99488.81;;;16.42;81.12
73860;BME280;62197;51.632;13.700;2023-04-23T09:50:03;99490.38;;;16.15;83.43
73860;BME280;62197;51.632;13.700;2023-04-23T09:52:32;99478.47;;;15.91;86.14
73860;BME280;62197;51.632;13.700;2023-04-23T09:55:00;99493.31;;;16.05;86.36
73860;BME280;62197;51.632;13.700;2023-04-23T09:57:26;99490.09;;;15.98;87.05
73860;BME280;62197;51.632;13.700;2023-04-23T09:59:55;99489.91;;;15.71;86.37
73860;BME280;62197;51.632;13.700;2023-04-23T10:02:25;99497.97;;;15.49;88.55
73860;BME280;62197;51.632;13.700;2023-04-23T10:04:51;99495.34;;;15.34;90.76
73860;BME280;62197;51.632;13.700;2023-04-23T10:07:17;99509.25;;;14.82;98.32
73860;BME280;62197;51.632;13.700;2023-04-23T10:09:43;99510.94;;;14.49;100.00
73860;BME280;62197;51.632;13.700;2023-04-23T10:12:09;99510.81;;;14.25;100.00
73860;BME280;62197;51.632;13.700;2023-04-23T10:14:37;99514.19;;;14.17;100.00
73860;BME280;62197;51.632;13.700;2023-04-23T10:17:03;99513.16;;;14.08;100.00
73860;BME280;62197;51.632;13.700;2023-04-23T10:19:29;99510.38;;;14.08;100.00
73860;BME280;62197;51.632;13.700;2023-04-23T10:22:00;99510.06;;;14.15;100.00
73860;BME280;62197;51.632;13.700;2023-04-23T10:24:31;99510.31;;;14.18;100.00
73860;BME280;62197;51.632;13.700;2023-04-23T10:26:59;99505.56;;;14.19;100.00
73860;BME280;62197;51.632;13.700;2023-04-23T10:29:29;99511.94;;;14.29;100.00
73860;BME280;62197;51.632;13.700;2023-04-23T10:31:57;99504.13;;;14.31;100.00
73860;BME280;62197;51.632;13.700;2023-04-23T10:34:24;99512.31;;;14.52;100.00
73860;BME280;62197;51.632;13.700;2023-04-23T10:36:50;99504.00;;;14.52;100.00
73860;BME280;62197;51.632;13.700;2023-04-23T10:39:17;99509.94;;;14.69;100.00
73860;BME280;62197;51.632;13.700;2023-04-23T10:41:43;99514.81;;;14.82;100.00
73860;BME280;62197;51.632;13.700;2023-04-23T10:44:11;99515.44;;;14.74;100.00
73860;BME280;62197;51.632;13.700;2023-04-23T10:46:37;99523.00;;;14.68;100.00
73860;BME280;62197;51.632;13.700;2023-04-23T10:49:13;99514.72;;;14.63;100.00
73860;BME280;62197;51.632;13.700;2023-04-23T10:51:39;99520.22;;;14.68;100.00
73860;BME280;62197;51.632;13.700;2023-04-23T10:54:07;99505.84;;;14.61;100.00
73860;BME280;62197;51.632;13.700;2023-04-23T10:56:33;99520.66;;;14.46;100.00
73860;BME280;62197;51.632;13.700;2023-04-23T10:58:59;99512.09;;;14.43;100.00
73860;BME280;62197;51.632;13.700;2023-04-23T11:01:27;99507.25;;;14.87;100.00
73860;BME280;62197;51.632;13.700;2023-04-23T11:03:52;99511.84;;;15.02;100.00
73860;BME280;62197;51.632;13.700;2023-04-23T11:06:49;99515.41;;;15.07;100.00
73860;BME280;62197;51.632;13.700;2023-04-23T11:11:53;99514.13;;;15.89;98.59
73860;BME280;62197;51.632;13.700;2023-04-23T11:14:19;99514.72;;;15.86;96.79
73860;BME280;62197;51.632;13.700;2023-04-23T11:16:44;99512.41;;;15.93;96.56
73860;BME280;62197;51.632;13.700;2023-04-23T11:19:12;99501.50;;;16.15;95.22
73860;BME280;62197;51.632;13.700;2023-04-23T11:26:55;99493.97;;;16.35;92.51
73860;BME280;62197;51.632;13.700;2023-04-23T11:29:22;99505.88;;;16.21;92.86
73860;BME280;62197;51.632;13.700;2023-04-23T11:31:48;99496.38;;;16.22;90.99
73860;BME280;62197;51.632;13.700;2023-04-23T11:34:13;99497.38;;;15.94;92.50
73860;BME280;62197;51.632;13.700;2023-04-23T11:36:39;99509.16;;;15.68;95.26
73860;BME280;62197;51.632;13.700;2023-04-23T11:39:05;99515.41;;;15.97;93.37
73860;BME280;62197;51.632;13.700;2023-04-23T11:41:31;99511.22;;;16.18;93.00
73860;BME280;62197;51.632;13.700;2023-04-23T11:43:57;99503.81;;;16.46;91.39
73860;BME280;62197;51.632;13.700;2023-04-23T11:46:23;99509.25;;;16.56;91.70
73860;BME280;62197;51.632;13.700;2023-04-23T11:48:49;99512.94;;;16.33;92.29
73860;BME280;62197;51.632;13.700;2023-04-23T11:51:14;99506.75;;;16.36;91.47
73860;BME280;62197;51.632;13.700;2023-04-23T11:53:47;99497.72;;;16.44;90.92
73860;BME280;62197;51.632;13.700;2023-04-23T11:56:15;99495.94;;;16.53;89.88
73860;BME280;62197;51.632;13.700;2023-04-23T11:58:41;99497.75;;;16.25;93.01
73860;BME280;62197;51.632;13.700;2023-04-23T12:01:06;99489.97;;;16.59;90.39
73860;BME280;62197;51.632;13.700;2023-04-23T12:03:32;99490.63;;;16.70;89.04
73860;BME280;62197;51.632;13.700;2023-04-23T12:05:58;99495.44;;;16.96;87.99
73860;BME280;62197;51.632;13.700;2023-04-23T12:08:23;99498.03;;;17.06;88.40
73860;BME280;62197;51.632;13.700;2023-04-23T12:13:19;99501.81;;;16.83;87.72
73860;BME280;62197;51.632;13.700;2023-04-23T12:15:50;99508.47;;;17.14;84.57
73860;BME280;62197;51.632;13.700;2023-04-23T12:18:16;99498.94;;;17.02;86.05
73860;BME280;62197;51.632;13.700;2023-04-23T12:20:42;99507.00;;;17.17;85.25
73860;BME280;62197;51.632;13.700;2023-04-23T12:23:07;99496.78;;;16.67;89.10
73860;BME280;62197;51.632;13.700;2023-04-23T12:25:34;99515.81;;;16.78;89.13
73860;BME280;62197;51.632;13.700;2023-04-23T12:28:00;99502.41;;;16.80;90.21
73860;BME280;62197;51.632;13.700;2023-04-23T12:30:29;99508.53;;;17.55;86.84
73860;BME280;62197;51.632;13.700;2023-04-23T12:33:01;99512.63;;;17.71;85.55
73860;BME280;62197;51.632;13.700;2023-04-23T12:38:05;99516.53;;;17.16;87.97
73860;BME280;62197;51.632;13.700;2023-04-23T12:40:32;99514.63;;;16.98;90.15
73860;BME280;62197;51.632;13.700;2023-04-23T12:42:57;99509.19;;;18.01;85.39
73860;BME280;62197;51.632;13.700;2023-04-23T12:45:22;99509.88;;;18.21;82.38
73860;BME280;62197;51.632;13.700;2023-04-23T12:47:48;99494.81;;;17.94;81.99
73860;BME280;62197;51.632;13.700;2023-04-23T12:50:13;99500.56;;;17.62;83.68
73860;BME280;62197;51.632;13.700;2023-04-23T12:52:38;99500.22;;;17.37;81.09
73860;BME280;62197;51.632;13.700;2023-04-23T12:55:04;99481.56;;;18.14;79.75
73860;BME280;62197;51.632;13.700;2023-04-23T12:57:30;99474.97;;;18.98;76.79